Main page
METAR-TAF:

METAR-TAF

Airports :

Alderney Airport

Alderney,

latitude: 49-43N, longitude: 002-12W, elevation: 71 m

Current weather observation

The report was made 48 minutes ago, at 18:20 UTC
Wind 15 kt from the Southeast
Temperature 6°C
Humidity 75%
Pressure 1014 hPa
Visibility 10 km or more
Few clouds at a height of 1800 ft

METAR: EGJA 211820Z 14015KT 9999 FEW018 06/02 Q1014

Time: 19:08 (19:08 UTC)

Forecast

The report was made 5 hours and 4 minutes ago, at 14:04 UTC
Forecast valid from 21 at 15 UTC to 21 at 19 UTC
Wind 16 kt from the South/Southeast
Visibility 10 km or more
Few clouds at a height of 1200 ft

TAF: EGJA 211404Z 2115/2119 16016KT 9999 FEW012

Weather observations and forecasts of more than 4000 airports (METAR and TAF reports).

The available stations are represented by yellow and red dots on the map.

Hover mouse over dot to see the name of the station.

Then click to see weather observations and forecasts.

To change the map : click on the green buttons with a black cross to zoom in, on the green button with a dash to zoom out, or on the green arrows for adjacent maps.


METAR-TAF: